EDDK/CGN METAR and TAF weather

Enter ICAO airport designator
Station Type Date Time Source
EDDK METAR 2022/01/27 23:20 UTC NOAA

EDDK 272320Z 31011G21KT 280V340 9999 SCT017 SCT025 06/03 Q1028 NOSIG


Station Type Date Time Source
EDDK Decoded METAR 2022/01/27 23:20 UTC NOAA

Koeln / Bonn, Germany (EDDK) 50-52N 007-10E 100M
Jan 27, 2022 - 06:20 PM EST / 2022.01.27 2320 UTC
Wind: from the NW (310 degrees) at 13 MPH (11 KT) gusting to 24 MPH (21 KT) (direction variable):0
Visibility: greater than 7 mile(s):0
Sky conditions: partly cloudy
Temperature: 42 F (6 C)
Dew Point: 37 F (3 C)
Relative Humidity: 81%
Pressure (altimeter): 30.36 in. Hg (1028 hPa)
ob: EDDK 272320Z 31011G21KT 280V340 9999 SCT017 SCT025 06/03 Q1028 NOSIG
cycle: 23

Station Type Date Time Source
EDDK TAF 2022/01/27 18:27 UTC NOAA

TAF EDDK 271700Z 2718/2824 27013KT 9999 BKN007
BECMG 2718/2722 28008KT BKN015 PROB30
TEMPO 2722/2810 BKN010
BECMG 2814/2817 22007KT

Example: see airport list